Time;durP1;ratioP1;P1;durP2;ratioP2;P2;SDS_P1;SDS_P2;PMS_P1;PMS_P2;Temp;Humidity;BMP_temperature;BMP_pressure;BME280_temperature;BME280_humidity;BME280_pressure;Samples;Min_cycle;Max_cycle;Signal;HPM_P1;HPM_P2
2022/04/21 00:00:11;;;;;;;;;;;10.20;99.90;;;;;;5091292;28;19927;-74
2022/04/21 00:02:37;;;;;;;;;;;10.20;99.90;;;;;;5091173;28;19935;-75
2022/04/21 00:05:03;;;;;;;;;;;10.20;99.90;;;;;;5091112;28;19976;-75
2022/04/21 00:07:28;;;;;;;;;;;10.20;99.90;;;;;;5091500;28;19931;-75
2022/04/21 00:09:54;;;;;;;;;;;10.20;99.90;;;;;;5089998;28;19924;-75
2022/04/21 00:12:20;;;;;;;;;;;10.20;99.90;;;;;;5091269;28;19950;-75
2022/04/21 00:14:45;;;;;;;;;;;10.20;99.90;;;;;;5091057;28;20028;-74
2022/04/21 00:17:10;;;;;;;;;;;10.20;99.90;;;;;;5094801;28;19934;-75
2022/04/21 00:19:39;;;;;;;;;;;10.20;99.90;;;;;;5111288;28;19924;-75
2022/04/21 00:24:49;;;;;;;;;;;10.10;99.90;;;;;;5111355;28;20002;-75
2022/04/21 00:27:14;;;;;;;;;;;10.10;99.90;;;;;;5110281;28;19930;-75
2022/04/21 00:29:40;;;;;;;;;;;10.10;99.90;;;;;;5110707;28;20345;-75
2022/04/21 00:32:05;;;;;;;;;;;10.00;99.90;;;;;;5111172;28;20010;-75
2022/04/21 00:34:31;;;;;;;;;;;10.00;99.90;;;;;;5109771;28;19928;-75
2022/04/21 00:36:57;;;;;;;;;;;10.00;99.90;;;;;;5110076;28;19935;-75
2022/04/21 00:39:22;;;;;;;;;;;10.00;99.90;;;;;;5107257;28;19927;-75
2022/04/21 00:41:48;;;;;;;;;;;10.00;99.90;;;;;;5109884;28;19923;-75
2022/04/21 00:44:13;;;;;;;;;;;10.00;99.90;;;;;;5092710;28;19989;-75
2022/04/21 00:46:39;;;;;;;;;;;10.00;99.90;;;;;;5090762;28;19979;-75
2022/04/21 00:49:06;;;;;;;;;;;9.90;99.90;;;;;;5090482;28;19924;-75
2022/04/21 00:51:31;;;;;;;;;;;10.00;99.90;;;;;;5089207;28;19936;-75
2022/04/21 00:53:58;;;;;;;;;;;9.90;99.90;;;;;;5090417;28;19924;-75
2022/04/21 00:56:25;;;;;;;;;;;9.90;99.90;;;;;;5101471;28;19923;-75
2022/04/21 00:58:50;;;;;;;;;;;9.90;99.90;;;;;;5110667;28;19976;-75
2022/04/21 01:04:01;;;;;;;;;;;9.80;99.90;;;;;;5108902;28;19970;-75
2022/04/21 01:06:26;;;;;;;;;;;9.80;99.90;;;;;;5109282;28;19971;-75
2022/04/21 01:08:52;;;;;;;;;;;9.80;99.90;;;;;;5109438;28;19927;-75
2022/04/21 01:11:18;;;;;;;;;;;9.80;99.90;;;;;;5110361;28;20445;-75
2022/04/21 01:13:43;;;;;;;;;;;9.70;99.90;;;;;;5096346;28;19930;-75
2022/04/21 01:16:09;;;;;;;;;;;9.70;99.90;;;;;;5090033;28;19924;-75
2022/04/21 01:18:34;;;;;;;;;;;9.70;99.90;;;;;;5088775;28;19924;-75
2022/04/21 01:21:00;;;;;;;;;;;9.60;99.90;;;;;;5089040;28;19977;-75
2022/04/21 01:23:25;;;;;;;;;;;9.60;99.90;;;;;;5089725;28;20790;-75
2022/04/21 01:25:51;;;;;;;;;;;9.60;99.90;;;;;;5088781;28;19924;-75
2022/04/21 01:28:17;;;;;;;;;;;9.60;99.90;;;;;;5088448;28;19932;-75
2022/04/21 01:30:43;;;;;;;;;;;9.60;99.90;;;;;;5071247;28;19939;-75
2022/04/21 01:33:09;;;;;;;;;;;9.50;99.90;;;;;;5088588;28;20014;-75
2022/04/21 01:35:35;;;;;;;;;;;9.50;99.90;;;;;;5089548;28;20026;-75
2022/04/21 01:43:29;;;;;;;;;;;9.40;99.90;;;;;;5089191;28;20404;-75
2022/04/21 01:45:55;;;;;;;;;;;9.40;99.90;;;;;;5089653;28;19947;-75
2022/04/21 01:48:20;;;;;;;;;;;9.30;99.90;;;;;;5107420;28;19928;-74
2022/04/21 01:50:46;;;;;;;;;;;9.30;99.90;;;;;;5109713;28;20416;-75
2022/04/21 01:53:11;;;;;;;;;;;9.20;99.90;;;;;;5109058;28;19970;-75
2022/04/21 01:55:37;;;;;;;;;;;9.20;99.90;;;;;;5108250;28;19924;-75
2022/04/21 01:58:02;;;;;;;;;;;9.20;99.90;;;;;;5109932;28;19928;-75
2022/04/21 02:00:28;;;;;;;;;;;9.20;99.90;;;;;;5108643;28;19923;-75
2022/04/21 02:02:54;;;;;;;;;;;9.20;99.90;;;;;;5108330;28;19924;-75
2022/04/21 02:05:19;;;;;;;;;;;9.10;99.90;;;;;;5108411;28;19928;-75
2022/04/21 02:07:45;;;;;;;;;;;9.10;99.90;;;;;;5108515;28;20285;-75
2022/04/21 02:10:15;;;;;;;;;;;9.10;99.90;;;;;;5108664;28;19969;-75
2022/04/21 02:12:41;;;;;;;;;;;9.10;99.90;;;;;;5109286;28;20369;-75
2022/04/21 02:15:07;;;;;;;;;;;9.10;99.90;;;;;;5114023;27;19924;-75
2022/04/21 02:17:33;;;;;;;;;;;9.00;99.90;;;;;;5112477;28;19924;-75
2022/04/21 02:19:59;;;;;;;;;;;9.00;99.90;;;;;;5113391;28;19924;-75
2022/04/21 02:22:25;;;;;;;;;;;9.00;99.90;;;;;;5113316;28;19931;-75
2022/04/21 02:24:50;;;;;;;;;;;9.00;99.90;;;;;;5112433;28;19924;-75
2022/04/21 02:27:16;;;;;;;;;;;9.00;99.90;;;;;;5113532;28;19927;-75
2022/04/21 02:29:41;;;;;;;;;;;8.90;99.90;;;;;;5112189;28;19928;-75
2022/04/21 02:32:07;;;;;;;;;;;9.00;99.90;;;;;;5113320;28;20022;-75
2022/04/21 02:34:33;;;;;;;;;;;8.90;99.90;;;;;;5113564;28;19924;-75
2022/04/21 02:36:58;;;;;;;;;;;8.90;99.90;;;;;;5113227;28;19924;-75
2022/04/21 02:39:24;;;;;;;;;;;8.90;99.90;;;;;;5113552;28;19930;-75
2022/04/21 02:41:50;;;;;;;;;;;8.90;99.90;;;;;;5113281;28;19924;-75
2022/04/21 02:44:15;;;;;;;;;;;8.80;99.90;;;;;;5113204;28;19931;-75
2022/04/21 02:46:41;;;;;;;;;;;8.80;99.90;;;;;;5107982;28;19928;-75
2022/04/21 02:49:06;;;;;;;;;;;8.80;99.90;;;;;;5093084;28;19950;-75
2022/04/21 02:51:33;;;;;;;;;;;8.80;99.90;;;;;;5091354;28;19931;-75
2022/04/21 02:59:28;;;;;;;;;;;8.80;99.90;;;;;;5092124;28;19924;-75
2022/04/21 03:01:53;;;;;;;;;;;8.80;99.90;;;;;;5090711;28;19924;-75
2022/04/21 03:04:19;;;;;;;;;;;8.80;99.90;;;;;;5091620;28;19924;-75
2022/04/21 03:06:45;;;;;;;;;;;8.80;99.90;;;;;;5090368;28;19924;-75
2022/04/21 03:09:10;;;;;;;;;;;8.70;99.90;;;;;;5091131;28;19928;-75
2022/04/21 03:11:36;;;;;;;;;;;8.80;99.90;;;;;;5089955;28;19928;-75
2022/04/21 03:14:01;;;;;;;;;;;8.80;99.90;;;;;;5091662;28;19924;-75
2022/04/21 03:16:26;;;;;;;;;;;8.70;99.90;;;;;;5091494;28;19924;-75
2022/04/21 03:18:52;;;;;;;;;;;8.70;99.90;;;;;;5091472;28;20492;-75
2022/04/21 03:24:20;;;;;;;;;;;8.70;99.90;;;;;;5089039;28;20347;-75
2022/04/21 03:26:46;;;;;;;;;;;8.60;99.90;;;;;;5072975;28;20015;-75
2022/04/21 03:29:11;;;;;;;;;;;8.60;99.90;;;;;;5090175;28;19956;-75
2022/04/21 03:31:37;;;;;;;;;;;8.60;99.90;;;;;;5089900;28;20419;-75
2022/04/21 03:34:05;;;;;;;;;;;8.60;99.90;;;;;;5089436;28;19931;-75
2022/04/21 03:36:31;;;;;;;;;;;8.60;99.90;;;;;;5089874;28;19981;-75
2022/04/21 03:38:57;;;;;;;;;;;8.50;99.90;;;;;;5091104;28;19924;-75
2022/04/21 03:41:22;;;;;;;;;;;8.50;99.90;;;;;;5090988;28;20459;-75
2022/04/21 03:43:48;;;;;;;;;;;8.50;99.90;;;;;;5089471;28;19993;-75
2022/04/21 03:46:13;;;;;;;;;;;8.50;99.90;;;;;;5089581;28;19931;-75
2022/04/21 03:48:39;;;;;;;;;;;8.40;99.90;;;;;;5091838;28;19925;-75
2022/04/21 03:51:05;;;;;;;;;;;8.40;99.90;;;;;;5090391;28;20365;-75
2022/04/21 03:53:30;;;;;;;;;;;8.40;99.90;;;;;;5073863;28;20362;-75
2022/04/21 03:55:56;;;;;;;;;;;8.40;99.90;;;;;;5090812;28;19928;-75
2022/04/21 03:58:22;;;;;;;;;;;8.40;99.90;;;;;;5090970;28;20501;-75
2022/04/21 04:00:48;;;;;;;;;;;8.40;99.90;;;;;;5091553;28;19924;-75
2022/04/21 04:03:14;;;;;;;;;;;8.30;99.90;;;;;;5090335;28;20390;-75
2022/04/21 04:05:40;;;;;;;;;;;8.30;99.90;;;;;;5091214;28;19928;-75
2022/04/21 04:10:52;;;;;;;;;;;8.30;99.90;;;;;;5090130;28;19924;-75
2022/04/21 04:13:18;;;;;;;;;;;8.30;99.90;;;;;;5089401;28;19977;-75
2022/04/21 04:15:48;;;;;;;;;;;8.30;99.90;;;;;;5090681;28;19928;-75
2022/04/21 04:18:16;;;;;;;;;;;8.30;99.90;;;;;;5088744;28;19928;-75
2022/04/21 04:20:42;;;;;;;;;;;8.20;99.90;;;;;;5089553;28;19981;-75
2022/04/21 04:23:08;;;;;;;;;;;8.20;99.90;;;;;;5090974;28;19932;-75
2022/04/21 04:25:33;;;;;;;;;;;8.20;99.90;;;;;;5089626;28;20287;-75
2022/04/21 04:27:59;;;;;;;;;;;8.20;99.90;;;;;;5072871;28;20007;-75
2022/04/21 04:30:25;;;;;;;;;;;8.10;99.90;;;;;;5090342;28;19954;-75
2022/04/21 04:32:50;;;;;;;;;;;8.20;99.90;;;;;;5090706;28;20007;-75
2022/04/21 04:35:15;;;;;;;;;;;8.10;99.90;;;;;;5090713;28;19947;-75
2022/04/21 04:37:41;;;;;;;;;;;8.10;99.90;;;;;;5090387;28;19934;-75
2022/04/21 04:40:07;;;;;;;;;;;8.10;99.90;;;;;;5090930;28;19973;-75
2022/04/21 04:42:32;;;;;;;;;;;8.10;99.90;;;;;;5089634;28;20103;-75
2022/04/21 04:47:42;;;;;;;;;;;8.10;99.90;;;;;;5103154;28;19927;-75
2022/04/21 04:50:08;;;;;;;;;;;8.10;99.90;;;;;;5110387;28;19969;-75
2022/04/21 04:52:33;;;;;;;;;;;8.10;99.90;;;;;;5109599;28;19997;-75
2022/04/21 04:54:59;;;;;;;;;;;8.10;99.90;;;;;;5110827;28;19924;-75
2022/04/21 04:57:24;;;;;;;;;;;8.10;99.90;;;;;;5110617;28;19924;-75
2022/04/21 04:59:50;;;;;;;;;;;8.20;99.90;;;;;;5110473;28;19930;-75
2022/04/21 05:02:20;;;;;;;;;;;8.20;99.90;;;;;;5110492;28;19946;-75
2022/04/21 05:04:48;;;;;;;;;;;8.20;99.90;;;;;;5110646;28;19980;-75
2022/04/21 05:07:14;;;;;;;;;;;8.30;99.90;;;;;;5110489;28;20014;-75
2022/04/21 05:09:40;;;;;;;;;;;8.30;99.90;;;;;;5110441;28;19999;-75
2022/04/21 05:12:06;;;;;;;;;;;8.30;99.90;;;;;;5092320;28;19970;-75
2022/04/21 05:14:31;;;;;;;;;;;8.40;99.90;;;;;;5110298;28;19977;-75
2022/04/21 05:16:57;;;;;;;;;;;8.40;99.90;;;;;;5110166;28;20143;-76
2022/04/21 05:19:23;;;;;;;;;;;8.40;99.90;;;;;;5109955;28;19930;-75
2022/04/21 05:21:49;;;;;;;;;;;8.40;99.90;;;;;;5108835;28;19924;-76
2022/04/21 05:24:15;;;;;;;;;;;8.50;99.90;;;;;;5108713;28;19923;-75
2022/04/21 05:26:41;;;;;;;;;;;8.60;99.90;;;;;;5109997;28;19946;-75
2022/04/21 05:31:54;;;;;;;;;;;8.60;99.90;;;;;;5110356;28;19930;-75
2022/04/21 05:34:19;;;;;;;;;;;8.70;99.90;;;;;;5108795;28;19977;-76
2022/04/21 05:36:45;;;;;;;;;;;8.70;99.90;;;;;;5109891;28;20297;-75
2022/04/21 05:39:11;;;;;;;;;;;8.70;99.90;;;;;;5109102;28;20327;-76
2022/04/21 05:41:37;;;;;;;;;;;8.80;99.90;;;;;;5108938;28;19948;-75
2022/04/21 05:44:03;;;;;;;;;;;8.80;99.90;;;;;;5110500;28;19968;-75
2022/04/21 05:46:29;;;;;;;;;;;8.90;99.90;;;;;;5107888;28;19924;-75
2022/04/21 05:48:54;;;;;;;;;;;8.90;99.90;;;;;;5087473;28;19992;-75
2022/04/21 05:51:21;;;;;;;;;;;9.00;99.90;;;;;;5088320;28;20390;-75
2022/04/21 05:53:47;;;;;;;;;;;9.00;99.90;;;;;;5091622;28;20402;-75
2022/04/21 05:56:13;;;;;;;;;;;9.10;99.90;;;;;;5102218;28;20302;-75
2022/04/21 05:58:38;;;;;;;;;;;9.10;99.90;;;;;;5102721;28;19924;-74
2022/04/21 06:01:05;;;;;;;;;;;9.10;99.90;;;;;;5092827;28;19928;-74
2022/04/21 06:03:31;;;;;;;;;;;9.20;99.90;;;;;;5108715;28;19959;-74
2022/04/21 06:05:56;;;;;;;;;;;9.30;99.90;;;;;;5100318;28;19924;-74
2022/04/21 06:08:22;;;;;;;;;;;9.30;99.90;;;;;;5089170;28;19939;-74
2022/04/21 06:10:47;;;;;;;;;;;9.30;99.90;;;;;;5107406;28;19924;-74
2022/04/21 06:13:15;;;;;;;;;;;9.30;99.90;;;;;;5108476;28;19951;-74
2022/04/21 06:15:41;;;;;;;;;;;9.40;99.90;;;;;;5109153;28;20433;-74
2022/04/21 06:18:07;;;;;;;;;;;9.40;99.90;;;;;;5110108;28;19930;-74
2022/04/21 06:20:34;;;;;;;;;;;9.50;99.90;;;;;;5105125;28;19923;-74
2022/04/21 06:22:59;;;;;;;;;;;9.50;99.90;;;;;;5090249;28;20374;-74
2022/04/21 06:25:25;;;;;;;;;;;9.60;99.90;;;;;;5086399;28;19935;-74
2022/04/21 06:27:51;;;;;;;;;;;9.60;99.90;;;;;;5092097;28;19924;-74
2022/04/21 06:30:18;;;;;;;;;;;9.70;99.90;;;;;;5088642;28;19924;-74
2022/04/21 06:32:43;;;;;;;;;;;9.70;99.90;;;;;;5106757;28;19931;-74
2022/04/21 06:35:09;;;;;;;;;;;9.80;99.90;;;;;;5106274;28;19923;-74
2022/04/21 06:37:35;;;;;;;;;;;9.80;99.90;;;;;;5092274;28;19924;-74
2022/04/21 06:40:04;;;;;;;;;;;9.80;99.90;;;;;;5108800;28;19924;-74
2022/04/21 06:42:29;;;;;;;;;;;9.90;99.90;;;;;;5107366;28;19942;-74
2022/04/21 06:50:23;;;;;;;;;;;10.10;99.90;;;;;;5088123;28;20031;-74
2022/04/21 06:52:48;;;;;;;;;;;10.20;99.90;;;;;;5101323;28;20417;-74
2022/04/21 06:55:14;;;;;;;;;;;10.30;99.90;;;;;;5108252;28;20717;-73
2022/04/21 06:57:39;;;;;;;;;;;10.30;99.90;;;;;;5108571;28;19924;-74
2022/04/21 07:00:05;;;;;;;;;;;10.40;99.90;;;;;;5110190;28;19931;-74
2022/04/21 07:02:31;;;;;;;;;;;10.50;99.90;;;;;;5111770;28;20014;-74
2022/04/21 07:05:06;;;;;;;;;;;10.50;99.90;;;;;;5112901;28;19923;-74
2022/04/21 07:07:32;;;;;;;;;;;10.60;99.90;;;;;;5112338;28;20098;-74
2022/04/21 07:09:57;;;;;;;;;;;10.60;99.90;;;;;;5112099;28;20018;-74
2022/04/21 07:12:27;;;;;;;;;;;10.70;99.90;;;;;;5111887;28;19935;-74
2022/04/21 07:14:53;;;;;;;;;;;10.80;99.90;;;;;;5088249;28;20306;-74
2022/04/21 07:17:20;;;;;;;;;;;10.80;99.90;;;;;;5107371;28;19923;-74
2022/04/21 07:19:45;;;;;;;;;;;10.90;99.90;;;;;;5110648;28;19983;-75
2022/04/21 07:22:11;;;;;;;;;;;11.00;99.90;;;;;;5108356;28;19923;-74
2022/04/21 07:24:36;;;;;;;;;;;11.00;99.90;;;;;;5104396;28;19924;-75
2022/04/21 07:27:02;;;;;;;;;;;11.10;99.90;;;;;;5091085;28;19931;-75
2022/04/21 07:29:27;;;;;;;;;;;11.20;99.90;;;;;;5103189;28;19924;-75
2022/04/21 07:31:53;;;;;;;;;;;11.20;99.90;;;;;;5097256;28;19930;-75
2022/04/21 07:34:18;;;;;;;;;;;11.30;99.90;;;;;;5092423;28;19979;-74
2022/04/21 07:36:46;;;;;;;;;;;11.30;99.90;;;;;;5111433;28;20020;-75
2022/04/21 07:39:11;;;;;;;;;;;11.50;99.90;;;;;;5111090;28;19924;-74
2022/04/21 07:41:37;;;;;;;;;;;11.50;99.90;;;;;;5112394;28;19930;-74
2022/04/21 07:44:02;;;;;;;;;;;11.60;99.90;;;;;;5111967;28;19935;-75
2022/04/21 07:46:28;;;;;;;;;;;11.70;99.90;;;;;;5111503;28;19930;-75
2022/04/21 07:51:38;;;;;;;;;;;11.90;98.70;;;;;;5112072;28;20378;-75
2022/04/21 07:54:03;;;;;;;;;;;11.90;97.60;;;;;;5112170;28;19969;-75
2022/04/21 07:56:29;;;;;;;;;;;12.00;97.20;;;;;;5111968;28;20607;-75
2022/04/21 07:58:54;;;;;;;;;;;12.10;96.30;;;;;;5112240;28;20024;-75
2022/04/21 08:01:20;;;;;;;;;;;12.10;96.80;;;;;;5112114;28;19930;-75
2022/04/21 08:03:45;;;;;;;;;;;12.20;97.10;;;;;;5112077;28;19931;-75
2022/04/21 08:06:12;;;;;;;;;;;12.30;97.10;;;;;;5111845;28;19924;-75
2022/04/21 08:08:40;;;;;;;;;;;12.40;97.40;;;;;;5111609;28;19978;-75
2022/04/21 08:11:07;;;;;;;;;;;12.50;96.30;;;;;;5111961;28;19931;-75
2022/04/21 08:13:32;;;;;;;;;;;12.50;96.40;;;;;;5112179;28;19981;-75
2022/04/21 08:15:58;;;;;;;;;;;12.60;96.20;;;;;;5112448;28;19928;-74
2022/04/21 08:18:23;;;;;;;;;;;12.60;96.10;;;;;;5112025;28;19924;-74
2022/04/21 08:20:52;;;;;;;;;;;12.70;95.40;;;;;;5111250;28;20323;-75
2022/04/21 08:23:17;;;;;;;;;;;12.80;95.10;;;;;;5088977;28;19950;-75
2022/04/21 08:33:55;;;;;;;;;;;13.20;94.80;;;;;;5101120;28;20010;-75
2022/04/21 08:36:20;;;;;;;;;;;13.20;94.10;;;;;;5110961;28;20064;-75
2022/04/21 08:38:47;;;;;;;;;;;13.30;94.80;;;;;;5111175;28;19923;-75
2022/04/21 08:41:17;;;;;;;;;;;13.50;95.30;;;;;;5111031;28;19930;-75
2022/04/21 08:43:44;;;;;;;;;;;13.60;93.60;;;;;;5111113;28;19924;-75
2022/04/21 08:46:12;;;;;;;;;;;13.70;93.50;;;;;;5110196;28;19980;-75
2022/04/21 08:48:38;;;;;;;;;;;13.70;92.30;;;;;;5104550;28;20385;-75
2022/04/21 08:51:07;;;;;;;;;;;13.80;92.40;;;;;;5108600;28;19924;-75
2022/04/21 08:53:33;;;;;;;;;;;13.90;92.10;;;;;;5109772;28;19923;-75
2022/04/21 08:55:59;;;;;;;;;;;14.00;92.20;;;;;;5109952;28;19973;-75
2022/04/21 08:58:25;;;;;;;;;;;14.10;91.70;;;;;;5109290;28;19923;-75
2022/04/21 09:00:53;;;;;;;;;;;14.10;91.30;;;;;;5109617;28;19930;-75
2022/04/21 09:03:19;;;;;;;;;;;14.20;91.10;;;;;;5108438;28;19978;-75
2022/04/21 09:05:45;;;;;;;;;;;14.20;90.70;;;;;;5110597;28;19963;-75
2022/04/21 09:08:23;;;;;;;;;;;14.30;90.80;;;;;;5109888;28;19963;-75
2022/04/21 09:11:05;;;;;;;;;;;14.40;90.50;;;;;;5102305;28;19931;-75
2022/04/21 09:13:38;;;;;;;;;;;14.50;91.00;;;;;;5089070;28;19924;-75
2022/04/21 09:16:04;;;;;;;;;;;14.50;89.60;;;;;;5089191;28;20321;-75
2022/04/21 09:18:43;;;;;;;;;;;14.60;90.60;;;;;;5070994;28;19960;-75
2022/04/21 09:21:10;;;;;;;;;;;14.70;90.90;;;;;;5107384;28;20491;-75
2022/04/21 09:23:35;;;;;;;;;;;15.10;90.20;;;;;;5107342;28;20018;-75
2022/04/21 09:26:08;;;;;;;;;;;15.70;87.60;;;;;;5109083;28;20060;-75
2022/04/21 09:28:34;;;;;;;;;;;16.20;83.90;;;;;;5109522;28;20384;-76
2022/04/21 09:31:00;;;;;;;4.95;2.50;;;16.60;81.40;;;;;;5096190;28;19971;-75
2022/04/21 09:33:27;;;;;;;;;;;17.00;79.20;;;;;;5104542;28;20075;-76
2022/04/21 09:35:55;;;;;;;;;;;17.20;78.20;;;;;;5108528;28;19920;-75
2022/04/21 09:38:21;;;;;;;;;;;17.50;76.10;;;;;;5109115;28;19924;-75
2022/04/21 09:40:47;;;;;;;;;;;17.70;75.00;;;;;;5107051;28;20681;-75
2022/04/21 09:43:13;;;;;;;;;;;18.00;74.40;;;;;;5108096;28;19923;-75
2022/04/21 09:48:29;;;;;;;;;;;18.60;71.00;;;;;;5090939;28;20270;-75
2022/04/21 09:51:06;;;;;;;;;;;18.80;70.20;;;;;;5074534;28;19920;-73
2022/04/21 09:53:44;;;;;;;;;;;19.00;70.10;;;;;;5105649;28;20294;-74
2022/04/21 09:56:09;;;;;;;;;;;19.30;68.80;;;;;;5107236;28;19920;-73
2022/04/21 09:58:39;;;;;;;;;;;19.60;68.50;;;;;;5108037;28;20376;-73
2022/04/21 10:01:04;;;;;;;;;;;19.70;64.70;;;;;;5108631;28;20010;-73
2022/04/21 10:03:33;;;;;;;;;;;19.60;62.70;;;;;;5108120;28;20011;-73
2022/04/21 10:05:59;;;;;;;;;;;19.60;63.10;;;;;;5108706;28;19946;-73
2022/04/21 10:08:24;;;;;;;;;;;19.80;62.60;;;;;;5103456;28;19919;-74
2022/04/21 10:10:51;;;;;;;;;;;20.00;60.60;;;;;;5095458;28;19967;-74
2022/04/21 10:13:17;;;;;;;;;;;20.10;59.20;;;;;;5097187;28;19916;-73
2022/04/21 10:15:43;;;;;;;;;;;20.10;60.50;;;;;;5090903;28;19924;-74
2022/04/21 10:18:11;;;;;;;;;;;20.30;60.10;;;;;;5096997;28;20006;-73
2022/04/21 10:20:40;;;;;;;;;;;20.50;60.70;;;;;;5092030;28;20010;-73
2022/04/21 10:23:10;;;;;;;;;;;20.60;59.00;;;;;;5092369;28;19965;-74
2022/04/21 10:25:36;;;;;;;;;;;20.60;59.40;;;;;;5094714;28;19920;-74
2022/04/21 10:28:22;;;;;;;;;;;20.40;58.20;;;;;;5088840;28;19971;-73
2022/04/21 10:30:48;;;;;;;;;;;20.40;57.10;;;;;;5089257;28;20401;-73
2022/04/21 10:33:14;;;;;;;;;;;20.30;56.20;;;;;;5100184;28;19920;-75
2022/04/21 10:35:39;;;;;;;;;;;20.30;57.90;;;;;;5076584;28;19943;-75
2022/04/21 10:38:11;;;;;;;;;;;20.40;57.00;;;;;;5093136;28;19962;-75
2022/04/21 10:40:53;;;;;;;;;;;20.40;55.70;;;;;;5102308;28;19927;-75
2022/04/21 10:43:19;;;;;;;;;;;20.60;56.50;;;;;;5107008;28;19999;-75
2022/04/21 10:46:01;;;;;;;;;;;20.80;56.60;;;;;;5094886;28;19984;-75
2022/04/21 10:48:40;;;;;;;;;;;20.80;55.90;;;;;;5094899;28;19946;-75
2022/04/21 10:51:05;;;;;;;;;;;21.00;57.20;;;;;;5096214;28;19920;-75
2022/04/21 10:59:24;;;;;;;;;;;21.20;53.70;;;;;;5091306;28;19975;-75
2022/04/21 11:01:53;;;;;;;;;;;20.90;54.50;;;;;;5097923;28;20045;-74
2022/04/21 11:04:20;;;;;;;;;;;20.80;54.80;;;;;;5095353;28;19968;-74
2022/04/21 11:06:47;;;;;;;;;;;20.80;55.80;;;;;;5090387;28;19920;-74
2022/04/21 11:09:31;;;;;;;;;;;20.80;55.00;;;;;;5103101;28;20019;-74
2022/04/21 11:11:57;;;;;;;;;;;20.80;55.80;;;;;;5111773;28;19980;-74
2022/04/21 11:14:29;;;;;;;;;;;21.10;55.30;;;;;;5109522;28;20401;-74
2022/04/21 11:16:55;;;;;;;;;;;21.30;53.90;;;;;;5111786;28;19920;-74
2022/04/21 11:19:30;;;;;;;;;;;21.40;54.30;;;;;;5110077;28;19924;-74
2022/04/21 11:21:55;;;;;;;;;;;21.50;54.70;;;;;;5111172;28;19926;-74
2022/04/21 11:24:21;;;;;;;;;;;21.50;53.80;;;;;;5111529;28;19920;-75
2022/04/21 11:26:53;;;;;;;;;;;21.60;54.10;;;;;;5111903;28;20007;-74
2022/04/21 11:29:19;;;;;;;;;;;21.70;53.60;;;;;;5105675;27;19924;-74
2022/04/21 11:31:45;;;;;;;;;;;21.60;51.80;;;;;;5111635;28;20267;-75
2022/04/21 11:34:10;;;;;;;;;;;21.70;52.70;;;;;;5103593;28;19927;-74
2022/04/21 11:36:37;;;;;;;;;;;21.60;51.00;;;;;;5090981;28;19920;-74
2022/04/21 11:39:07;;;;;;;;;;;21.60;52.30;;;;;;5095598;28;20241;-75
2022/04/21 11:41:33;;;;;;;;;;;21.60;52.40;;;;;;5112365;28;19931;-73
2022/04/21 11:43:58;;;;;;;;;;;21.70;52.60;;;;;;5112345;28;20393;-75
2022/04/21 11:46:24;;;;;;;;;;;21.80;51.80;;;;;;5110282;28;19931;-74
2022/04/21 11:48:58;;;;;;;;;;;21.80;51.60;;;;;;5095775;28;19920;-75
2022/04/21 11:51:25;;;;;;;;;;;21.90;52.80;;;;;;5111393;28;19923;-76
2022/04/21 11:53:50;;;;;;;;;;;22.00;53.00;;;;;;5110937;28;19920;-76
2022/04/21 11:56:16;;;;;;;;;;;22.20;52.20;;;;;;5110997;28;19920;-75
2022/04/21 11:58:41;;;;;;;;;;;22.30;51.10;;;;;;5112152;27;19927;-76
2022/04/21 12:06:45;;;;;;;;;;;22.20;51.80;;;;;;5105198;28;19919;-75
2022/04/21 12:09:14;;;;;;;;;;;22.30;50.40;;;;;;5110185;28;19920;-75
2022/04/21 12:11:40;;;;;;;;;;;22.40;49.10;;;;;;5109739;28;19920;-75
2022/04/21 12:14:06;;;;;;;;;;;22.30;48.90;;;;;;5108313;27;19974;-75
2022/04/21 12:16:35;;;;;;;;;;;22.30;49.90;;;;;;5110078;28;19963;-75
2022/04/21 12:19:11;;;;;;;;;;;22.40;50.10;;;;;;5093282;28;19924;-75
2022/04/21 12:21:36;;;;;;;;;;;22.40;50.80;;;;;;5108369;28;19990;-75
2022/04/21 12:24:29;;;;;;;;;;;22.50;49.90;;;;;;5109838;28;19931;-75
2022/04/21 12:26:55;;;;;;;;;;;22.60;49.30;;;;;;5104628;28;19927;-75
2022/04/21 12:29:21;;;;;;;;;;;22.60;49.10;;;;;;5089097;28;19942;-75
2022/04/21 12:31:48;;;;;;;;;;;22.50;48.40;;;;;;5090788;28;19920;-75
2022/04/21 12:34:19;;;;;;;;;;;22.50;49.10;;;;;;5094809;28;19924;-75
2022/04/21 12:36:51;;;;;;;;;;;22.50;48.60;;;;;;5102398;28;19980;-75
2022/04/21 12:39:17;;;;;;;;;;;22.60;48.70;;;;;;5110725;28;19919;-75
2022/04/21 12:41:43;;;;;;;;;;;22.60;48.30;;;;;;5111258;28;19924;-75
2022/04/21 12:44:09;;;;;;;;;;;22.70;48.20;;;;;;5105058;28;19942;-75
2022/04/21 12:46:34;;;;;;;;;;;22.70;48.60;;;;;;5093770;28;19928;-75
2022/04/21 12:49:00;;;;;;;;;;;22.70;48.50;;;;;;5109968;28;19994;-75
2022/04/21 12:51:26;;;;;;;;;;;22.70;48.20;;;;;;5096392;28;19927;-75
2022/04/21 12:53:56;;;;;;;;;;;22.60;48.70;;;;;;5090877;28;19931;-75
2022/04/21 12:56:31;;;;;;;;;;;22.70;49.40;;;;;;5094064;28;19928;-75
2022/04/21 12:58:57;;;;;;;;;;;22.90;48.60;;;;;;5108558;28;19940;-75
2022/04/21 13:01:23;;;;;;;;;;;23.10;48.00;;;;;;5110655;28;19920;-75
2022/04/21 13:03:48;;;;;;;;;;;23.30;48.30;;;;;;5091527;28;19920;-75
2022/04/21 13:06:24;;;;;;;;;;;23.60;48.30;;;;;;5109385;28;20377;-75
2022/04/21 13:08:49;;;;;;;;;;;23.70;47.80;;;;;;5109395;28;19919;-75
2022/04/21 13:11:15;;;;;;;;;;;23.70;47.70;;;;;;5109095;28;20064;-75
2022/04/21 13:13:40;;;;;;;;;;;23.60;48.10;;;;;;5110310;28;19919;-75
2022/04/21 13:16:06;;;;;;;;;;;23.60;47.30;;;;;;5109935;28;19927;-75
2022/04/21 13:18:31;;;;;;;;;;;23.60;47.30;;;;;;5110128;28;19926;-75
2022/04/21 13:23:41;;;;;;;;;;;23.80;46.90;;;;;;5094759;28;19971;-75
2022/04/21 13:26:07;;;;;;;;;;;23.90;47.00;;;;;;5087885;28;20318;-75
2022/04/21 13:28:33;;;;;;;;;;;23.80;46.80;;;;;;5089683;28;19924;-75
2022/04/21 13:33:43;;;;;;;;;;;24.30;46.00;;;;;;5109321;28;19928;-74
2022/04/21 13:36:09;;;;;;;;;;;24.40;46.70;;;;;;5110052;28;19946;-74
2022/04/21 13:38:34;;;;;;;;;;;24.40;46.10;;;;;;5097807;28;19928;-75
2022/04/21 13:41:00;;;;;;;;;;;24.40;47.00;;;;;;5089929;28;19931;-74
2022/04/21 13:43:26;;;;;;;;;;;24.80;47.30;;;;;;5098560;28;19924;-74
2022/04/21 13:45:52;;;;;;;;;;;25.10;46.70;;;;;;5087231;28;19931;-74
2022/04/21 13:48:18;;;;;;;;;;;25.40;45.80;;;;;;5106816;28;19935;-74
2022/04/21 13:50:43;;;;;;;;;;;25.40;45.80;;;;;;5093376;28;19958;-74
2022/04/21 13:53:09;;;;;;;;;;;25.20;45.90;;;;;;5088348;28;19935;-74
2022/04/21 13:55:34;;;;;;;;;;;25.10;45.80;;;;;;5089601;28;19928;-74
2022/04/21 13:58:00;;;;;;;;;;;25.10;46.50;;;;;;5088273;28;19924;-74
2022/04/21 14:00:26;;;;;;;;;;;25.20;46.70;;;;;;5105410;28;19924;-75
2022/04/21 14:02:52;;;;;;;;;;;25.30;46.00;;;;;;5109071;28;19931;-75
2022/04/21 14:05:18;;;;;;;;;;;25.20;45.80;;;;;;5109008;28;19928;-74
2022/04/21 14:07:43;;;;;;;;;;;25.10;46.40;;;;;;5108271;28;19928;-75
2022/04/21 14:10:09;;;;;;;;;;;25.00;45.50;;;;;;5112458;28;19924;-75
2022/04/21 14:12:34;;;;;;;;;;;25.00;45.10;;;;;;5113857;28;19923;-74
2022/04/21 14:15:00;;;;;;;;;;;24.80;45.70;;;;;;5112666;28;19975;-74
2022/04/21 14:17:26;;;;;;;;;;;24.70;45.90;;;;;;5112497;28;19930;-74
2022/04/21 14:19:51;;;;;;;;;;;24.60;47.00;;;;;;5112512;27;19931;-74
2022/04/21 14:22:16;;;;;;;;;;;24.70;46.80;;;;;;5110881;28;20293;-74
2022/04/21 14:24:43;;;;;;;;;;;25.00;47.10;;;;;;5102301;28;19932;-74
2022/04/21 14:27:08;;;;;;;;;;;25.10;46.70;;;;;;5099358;27;19931;-74
2022/04/21 14:29:34;;;;;;;;;;;25.00;47.10;;;;;;5112275;28;19927;-74
2022/04/21 14:31:59;;;;;;;;;;;24.70;47.10;;;;;;5112672;28;19924;-74
2022/04/21 14:34:25;;;;;;;;;;;24.50;46.70;;;;;;5108855;28;20374;-74
2022/04/21 14:36:51;;;;;;;;;;;24.30;49.10;;;;;;5091727;28;19931;-74
2022/04/21 14:44:46;;;;;;;;;;;23.70;49.90;;;;;;5112349;28;19923;-74
2022/04/21 14:47:11;;;;;;;;;;;23.30;49.90;;;;;;5112436;28;19946;-74
2022/04/21 14:49:37;;;;;;;;;;;22.90;50.10;;;;;;5105374;28;19924;-74
2022/04/21 14:52:09;;;;;;;;;;;22.70;51.40;;;;;;5104896;28;19934;-74
2022/04/21 14:54:35;;;;;;;;;;;22.40;52.10;;;;;;5096526;28;19970;-74
2022/04/21 14:57:00;;;;;;;;;;;22.00;52.90;;;;;;5091879;28;19963;-74
2022/04/21 14:59:26;;;;;;;;;;;21.50;53.10;;;;;;5092981;28;20000;-74
2022/04/21 15:01:51;;;;;;;;;;;21.20;54.10;;;;;;5091103;28;19924;-73
2022/04/21 15:04:17;;;;;;;;;;;20.90;54.70;;;;;;5091871;28;20313;-74
2022/04/21 15:06:45;;;;;;;;;;;20.70;56.40;;;;;;5091345;28;20374;-74
2022/04/21 15:09:11;;;;;;;;;;;20.70;56.60;;;;;;5091066;28;19924;-74
2022/04/21 15:11:41;;;;;;;;;;;20.40;55.90;;;;;;5091094;28;19947;-74
2022/04/21 15:14:07;;;;;;;;;;;20.30;57.00;;;;;;5091399;28;19930;-74
2022/04/21 15:16:33;;;;;;;;;;;20.10;56.60;;;;;;5092250;28;20414;-74
2022/04/21 15:18:59;;;;;;;;;;;20.00;57.40;;;;;;5091124;28;19931;-74
2022/04/21 15:21:25;;;;;;;;;;;20.00;57.90;;;;;;5089674;28;19924;-74
2022/04/21 15:23:50;;;;;;;;;;;20.00;57.40;;;;;;5092362;28;19993;-74
2022/04/21 15:26:16;;;;;;;;;;;19.90;58.00;;;;;;5090769;28;19924;-74